Hemlock, New York
Current Conditions -  °F | °C
As of 8:54 AM on Thursday 18 Dec 2014 (Local Time) from KDSV Reporting Station
Overcast Overcast  
Wind Chill: -5°   Ceiling: 2200
Heat Index:   Visibility: 10mi
Dew Point: -4°   Wind: 13mph
Humidity: 75%   Direction: 310°NW
Pressure: 30.07"   Gusts: 20mph
Location:  42.79°N, 77.61°W
Report Text: KDSV 181354Z AUTO 31011G17KT 10SM OVC022 00/M04 A3007 RMK AO2 SLP200 T00001039
Loading
Personal Weather Stations






























Interactive Weather Map New forecast layout! Learn more

10-Day Weather Forecast

Advertisements
Track Severe Weather on mobile